<?xml version="1.0" encoding="UTF-8" standalone="no" ?>
<gpx xmlns="http://www.topografix.com/GPX/1/1" xmlns:xsi="http://www.w3.org/2001/XMLSchema-instance" xsi:schemaLocation="http://www.topografix.com/GPX/1/1 http://www.topografix.com/GPX/1/1/gpx.xsd" version="1.1" creator="VisuGPX - https://www.visugpx.com">
  <metadata>
    <name>Parcours VTT Aglo 2021</name>
  </metadata>
  <trk>
    <name><![CDATA[Vert Cornillon La Bastide]]></name>
    <extensions>
      <line xmlns="http://www.topografix.com/GPX/gpx_style/0/2">
        <color>00ff00</color>
        <width>4</width>
      </line>
    </extensions>
    <trkseg>
      <trkpt lat="44.21814" lon="4.48562">
        <ele>88</ele>
        <time>2021-07-04T13:02:41Z</time>
      </trkpt>
      <trkpt lat="44.21814" lon="4.48562">
        <ele>88</ele>
        <time>2021-07-04T13:02:41Z</time>
      </trkpt>
      <trkpt lat="44.22162" lon="4.48045">
        <ele>84</ele>
        <time>2021-07-04T13:04:40Z</time>
      </trkpt>
      <trkpt lat="44.21869" lon="4.47693">
        <ele>78</ele>
        <time>2021-07-04T13:06:10Z</time>
      </trkpt>
      <trkpt lat="44.21717" lon="4.47425">
        <ele>80</ele>
        <time>2021-07-04T13:07:07Z</time>
      </trkpt>
      <trkpt lat="44.21644" lon="4.47243">
        <ele>79</ele>
        <time>2021-07-04T13:07:42Z</time>
      </trkpt>
      <trkpt lat="44.2165" lon="4.47061">
        <ele>79</ele>
        <time>2021-07-04T13:08:13Z</time>
      </trkpt>
      <trkpt lat="44.2159" lon="4.4694">
        <ele>79</ele>
        <time>2021-07-04T13:08:37Z</time>
      </trkpt>
      <trkpt lat="44.21479" lon="4.47003">
        <ele>79</ele>
        <time>2021-07-04T13:09:05Z</time>
      </trkpt>
      <trkpt lat="44.21406" lon="4.47031">
        <ele>78</ele>
        <time>2021-07-04T13:09:23Z</time>
      </trkpt>
      <trkpt lat="44.21311" lon="4.46983">
        <ele>76</ele>
        <time>2021-07-04T13:09:46Z</time>
      </trkpt>
      <trkpt lat="44.21162" lon="4.46964">
        <ele>80</ele>
        <time>2021-07-04T13:10:21Z</time>
      </trkpt>
      <trkpt lat="44.21034" lon="4.46919">
        <ele>80</ele>
        <time>2021-07-04T13:10:52Z</time>
      </trkpt>
      <trkpt lat="44.21016" lon="4.46871">
        <ele>80</ele>
        <time>2021-07-04T13:11:01Z</time>
      </trkpt>
      <trkpt lat="44.21046" lon="4.46809">
        <ele>79</ele>
        <time>2021-07-04T13:11:14Z</time>
      </trkpt>
      <trkpt lat="44.21018" lon="4.46766">
        <ele>78</ele>
        <time>2021-07-04T13:11:24Z</time>
      </trkpt>
      <trkpt lat="44.20932" lon="4.46737">
        <ele>75</ele>
        <time>2021-07-04T13:11:44Z</time>
      </trkpt>
      <trkpt lat="44.20708" lon="4.46567">
        <ele>78</ele>
        <time>2021-07-04T13:12:44Z</time>
      </trkpt>
      <trkpt lat="44.2066" lon="4.46537">
        <ele>80</ele>
        <time>2021-07-04T13:12:56Z</time>
      </trkpt>
      <trkpt lat="44.20572" lon="4.46528">
        <ele>81</ele>
        <time>2021-07-04T13:13:17Z</time>
      </trkpt>
      <trkpt lat="44.20558" lon="4.46503">
        <ele>82</ele>
        <time>2021-07-04T13:13:22Z</time>
      </trkpt>
      <trkpt lat="44.20497" lon="4.46476">
        <ele>82</ele>
        <time>2021-07-04T13:13:37Z</time>
      </trkpt>
      <trkpt lat="44.20403" lon="4.46365">
        <ele>86</ele>
        <time>2021-07-04T13:14:06Z</time>
      </trkpt>
      <trkpt lat="44.20333" lon="4.463">
        <ele>87</ele>
        <time>2021-07-04T13:14:25Z</time>
      </trkpt>
      <trkpt lat="44.20295" lon="4.46287">
        <ele>90</ele>
        <time>2021-07-04T13:14:34Z</time>
      </trkpt>
      <trkpt lat="44.20223" lon="4.46218">
        <ele>94</ele>
        <time>2021-07-04T13:14:55Z</time>
      </trkpt>
      <trkpt lat="44.20208" lon="4.46153">
        <ele>95</ele>
        <time>2021-07-04T13:15:06Z</time>
      </trkpt>
      <trkpt lat="44.20131" lon="4.46117">
        <ele>99</ele>
        <time>2021-07-04T13:15:25Z</time>
      </trkpt>
      <trkpt lat="44.20048" lon="4.46121">
        <ele>102</ele>
        <time>2021-07-04T13:15:45Z</time>
      </trkpt>
      <trkpt lat="44.20122" lon="4.46279">
        <ele>103</ele>
        <time>2021-07-04T13:16:16Z</time>
      </trkpt>
      <trkpt lat="44.2021" lon="4.46493">
        <ele>103</ele>
        <time>2021-07-04T13:16:58Z</time>
      </trkpt>
      <trkpt lat="44.20134" lon="4.46531">
        <ele>98</ele>
        <time>2021-07-04T13:17:16Z</time>
      </trkpt>
      <trkpt lat="44.20114" lon="4.46611">
        <ele>91</ele>
        <time>2021-07-04T13:17:31Z</time>
      </trkpt>
      <trkpt lat="44.20124" lon="4.46684">
        <ele>88</ele>
        <time>2021-07-04T13:17:43Z</time>
      </trkpt>
      <trkpt lat="44.20174" lon="4.46738">
        <ele>89</ele>
        <time>2021-07-04T13:17:58Z</time>
      </trkpt>
      <trkpt lat="44.20308" lon="4.46809">
        <ele>87</ele>
        <time>2021-07-04T13:18:31Z</time>
      </trkpt>
      <trkpt lat="44.20317" lon="4.4679">
        <ele>89</ele>
        <time>2021-07-04T13:18:35Z</time>
      </trkpt>
      <trkpt lat="44.20316" lon="4.46732">
        <ele>91</ele>
        <time>2021-07-04T13:18:45Z</time>
      </trkpt>
      <trkpt lat="44.20296" lon="4.46665">
        <ele>93</ele>
        <time>2021-07-04T13:18:57Z</time>
      </trkpt>
      <trkpt lat="44.20322" lon="4.46656">
        <ele>93</ele>
        <time>2021-07-04T13:19:03Z</time>
      </trkpt>
      <trkpt lat="44.20331" lon="4.46608">
        <ele>94</ele>
        <time>2021-07-04T13:19:12Z</time>
      </trkpt>
      <trkpt lat="44.20329" lon="4.4657">
        <ele>95</ele>
        <time>2021-07-04T13:19:18Z</time>
      </trkpt>
      <trkpt lat="44.2034" lon="4.46517">
        <ele>94</ele>
        <time>2021-07-04T13:19:27Z</time>
      </trkpt>
      <trkpt lat="44.20348" lon="4.46401">
        <ele>89</ele>
        <time>2021-07-04T13:19:47Z</time>
      </trkpt>
      <trkpt lat="44.20355" lon="4.46421">
        <ele>89</ele>
        <time>2021-07-04T13:19:50Z</time>
      </trkpt>
      <trkpt lat="44.20404" lon="4.4637">
        <ele>86</ele>
        <time>2021-07-04T13:20:05Z</time>
      </trkpt>
      <trkpt lat="44.20507" lon="4.46479">
        <ele>82</ele>
        <time>2021-07-04T13:20:35Z</time>
      </trkpt>
      <trkpt lat="44.20574" lon="4.46533">
        <ele>81</ele>
        <time>2021-07-04T13:20:53Z</time>
      </trkpt>
      <trkpt lat="44.20668" lon="4.46549">
        <ele>80</ele>
        <time>2021-07-04T13:21:15Z</time>
      </trkpt>
      <trkpt lat="44.20829" lon="4.46666">
        <ele>75</ele>
        <time>2021-07-04T13:21:57Z</time>
      </trkpt>
      <trkpt lat="44.21007" lon="4.46774">
        <ele>78</ele>
        <time>2021-07-04T13:22:43Z</time>
      </trkpt>
      <trkpt lat="44.21047" lon="4.46804">
        <ele>79</ele>
        <time>2021-07-04T13:22:53Z</time>
      </trkpt>
      <trkpt lat="44.20953" lon="4.46954">
        <ele>78</ele>
        <time>2021-07-04T13:23:27Z</time>
      </trkpt>
      <trkpt lat="44.20938" lon="4.46986">
        <ele>77</ele>
        <time>2021-07-04T13:23:33Z</time>
      </trkpt>
      <trkpt lat="44.20783" lon="4.46965">
        <ele>75</ele>
        <time>2021-07-04T13:24:09Z</time>
      </trkpt>
      <trkpt lat="44.20699" lon="4.47077">
        <ele>73</ele>
        <time>2021-07-04T13:24:37Z</time>
      </trkpt>
      <trkpt lat="44.20594" lon="4.47131">
        <ele>73</ele>
        <time>2021-07-04T13:25:03Z</time>
      </trkpt>
      <trkpt lat="44.20435" lon="4.47451">
        <ele>82</ele>
        <time>2021-07-04T13:26:08Z</time>
      </trkpt>
      <trkpt lat="44.20405" lon="4.47618">
        <ele>94</ele>
        <time>2021-07-04T13:26:37Z</time>
      </trkpt>
      <trkpt lat="44.20474" lon="4.47851">
        <ele>100</ele>
        <time>2021-07-04T13:27:19Z</time>
      </trkpt>
      <trkpt lat="44.20852" lon="4.47975">
        <ele>91</ele>
        <time>2021-07-04T13:28:50Z</time>
      </trkpt>
      <trkpt lat="44.21171" lon="4.48135">
        <ele>84</ele>
        <time>2021-07-04T13:30:09Z</time>
      </trkpt>
      <trkpt lat="44.21465" lon="4.48241">
        <ele>76</ele>
        <time>2021-07-04T13:31:20Z</time>
      </trkpt>
      <trkpt lat="44.21673" lon="4.48408">
        <ele>83</ele>
        <time>2021-07-04T13:32:16Z</time>
      </trkpt>
      <trkpt lat="44.21793" lon="4.4855">
        <ele>88</ele>
        <time>2021-07-04T13:32:52Z</time>
      </trkpt>
      <trkpt lat="44.21826" lon="4.48525">
        <ele>85</ele>
        <time>2021-07-04T13:33:01Z</time>
      </trkpt>
      <trkpt lat="44.21843" lon="4.48543">
        <ele>86</ele>
        <time>2021-07-04T13:33:06Z</time>
      </trkpt>
      <trkpt lat="44.21822" lon="4.4857">
        <ele>88</ele>
        <time>2021-07-04T13:33:13Z</time>
      </trkpt>
    </trkseg>
  </trk>
</gpx>